createdAt,value
2017-05-18T15:36:06.391Z,16276
2017-05-18T15:36:26.613Z,16396
2017-05-18T15:36:46.643Z,16616
2017-05-18T15:37:06.184Z,16896
2017-05-18T15:37:27.393Z,17164
2017-05-18T15:37:47.401Z,17384
2017-05-18T15:38:07.381Z,17728
2017-05-18T15:38:27.031Z,17952
2017-05-18T15:38:47.035Z,18112
2017-05-18T15:39:06.727Z,18176
2017-05-18T15:39:26.714Z,18240
2017-05-18T15:39:46.756Z,18368
2017-05-18T15:40:06.756Z,18432
2017-05-18T15:40:25.088Z,18368
2017-05-18T15:40:45.010Z,18336
2017-05-18T15:41:05.490Z,18336
2017-05-18T15:41:25.531Z,18272
2017-05-18T15:41:45.532Z,18208
2017-05-18T15:42:05.583Z,18144
2017-05-18T15:42:23.323Z,18144
2017-05-18T15:42:43.273Z,18240
2017-05-18T15:43:03.299Z,18432
2017-05-18T15:43:23.310Z,18720
2017-05-18T15:43:43.270Z,19072
2017-05-18T15:44:04.975Z,19520
2017-05-18T15:44:24.458Z,20000
2017-05-18T15:44:43.986Z,20384
2017-05-18T15:45:04.008Z,20864
2017-05-18T15:45:24.198Z,21344
2017-05-18T15:45:44.195Z,21760
2017-05-18T15:46:03.017Z,22112
2017-05-18T15:46:22.559Z,22368
2017-05-18T15:46:42.592Z,22688
2017-05-18T15:47:15.827Z,23168
2017-05-18T15:47:35.811Z,23520
2017-05-18T15:47:55.735Z,23872
2017-05-18T15:48:15.849Z,24288
2017-05-18T15:48:34.705Z,24768
2017-05-18T15:48:54.769Z,25312
2017-05-18T15:49:14.763Z,25824
2017-05-18T15:49:34.754Z,26304
2017-05-18T15:49:54.791Z,26752
2017-05-18T15:50:14.791Z,27040
2017-05-18T15:50:34.799Z,27328
2017-05-18T15:50:54.864Z,27488
2017-05-18T15:51:14.955Z,27552
2017-05-18T15:51:34.932Z,27552
2017-05-18T15:51:54.919Z,27488
2017-05-18T15:52:14.365Z,27392
2017-05-18T15:52:33.869Z,27232
2017-05-18T15:52:53.844Z,26912
2017-05-18T15:53:13.889Z,26496
2017-05-18T15:53:32.837Z,26080
2017-05-18T15:53:52.827Z,25568
2017-05-18T15:54:12.239Z,25024
2017-05-18T15:54:31.152Z,24480
2017-05-18T15:54:50.204Z,24032
2017-05-18T15:55:10.212Z,23680
2017-05-18T15:55:29.722Z,23392
2017-05-18T15:55:49.793Z,23168
2017-05-18T15:56:09.797Z,23008
2017-05-18T15:56:29.776Z,22976
2017-05-18T15:56:49.813Z,23040
2017-05-18T15:57:09.203Z,23168
2017-05-18T15:57:29.170Z,23424
2017-05-18T15:57:49.284Z,23712
2017-05-18T15:58:09.319Z,23936
2017-05-18T15:58:29.308Z,24000
2017-05-18T15:58:48.724Z,24000
2017-05-18T15:59:08.734Z,23904
2017-05-18T15:59:28.701Z,23776
2017-05-18T15:59:48.133Z,23488
2017-05-18T16:00:08.131Z,23104
2017-05-18T16:00:27.063Z,22624
2017-05-18T16:00:47.088Z,21952
2017-05-18T16:01:07.125Z,21280
2017-05-18T16:01:27.158Z,20448
2017-05-18T16:01:47.140Z,19488
2017-05-18T16:02:07.174Z,18592
2017-05-18T16:02:26.621Z,17524
2017-05-18T16:02:46.648Z,16536
2017-05-18T16:03:06.666Z,15540
2017-05-18T16:03:25.542Z,14616
2017-05-18T16:03:45.582Z,13660
2017-05-18T16:04:05.026Z,12804
2017-05-18T16:04:23.348Z,12116
2017-05-18T16:04:43.364Z,11504
2017-05-18T16:05:02.865Z,11032
2017-05-18T16:05:22.406Z,10684
2017-05-18T16:05:42.430Z,10444
2017-05-18T16:06:02.410Z,10268
2017-05-18T16:06:22.445Z,10192
2017-05-18T16:06:43.049Z,10184
2017-05-18T16:07:03.011Z,10240
2017-05-18T16:07:22.431Z,10364
2017-05-18T16:07:42.456Z,10548
2017-05-18T16:08:02.424Z,10748
2017-05-18T16:08:22.437Z,10964
2017-05-18T16:08:42.041Z,11248
2017-05-18T16:09:02.052Z,11632
2017-05-18T16:09:21.008Z,12068
2017-05-18T16:09:42.474Z,12632
2017-05-18T16:10:02.975Z,13244
2017-05-18T16:10:22.493Z,13892
2017-05-18T16:10:41.988Z,14524
2017-05-18T16:11:03.558Z,15168
2017-05-18T16:11:24.723Z,15692
2017-05-18T16:11:45.052Z,16080
2017-05-18T16:12:05.065Z,16344
2017-05-18T16:12:25.511Z,16440
2017-05-18T16:12:45.153Z,16408
2017-05-18T16:13:04.659Z,16284
2017-05-18T16:13:25.339Z,16028
2017-05-18T16:13:45.323Z,15724
2017-05-18T16:14:05.837Z,15400
2017-05-18T16:14:25.862Z,15128
2017-05-18T16:14:45.858Z,14924
2017-05-18T16:15:05.515Z,14740
2017-05-18T16:15:25.569Z,14444
2017-05-18T16:15:45.635Z,14004
2017-05-18T16:16:05.042Z,13456
2017-05-18T16:16:23.424Z,12804
2017-05-18T16:16:43.694Z,11976
2017-05-18T16:17:03.120Z,11104
2017-05-18T16:17:22.537Z,10212
2017-05-18T16:17:42.011Z,9396
2017-05-18T16:18:02.078Z,8636
2017-05-18T16:18:22.125Z,7972
2017-05-18T16:18:55.979Z,7116
2017-05-18T16:19:16.017Z,6732
2017-05-18T16:19:36.002Z,6424
2017-05-18T16:19:55.419Z,6180
2017-05-18T16:20:15.525Z,5988
2017-05-18T16:20:35.626Z,5836
2017-05-18T16:20:55.057Z,5716
2017-05-18T16:21:15.343Z,5616
2017-05-18T16:21:35.559Z,5532
2017-05-18T16:21:55.664Z,5464
2017-05-18T16:22:16.161Z,5400
2017-05-18T16:22:35.975Z,5344
2017-05-18T16:22:56.058Z,5304
2017-05-18T16:23:30.178Z,5240
2017-05-18T16:23:49.100Z,5220
2017-05-18T16:24:09.271Z,5216
2017-05-18T16:24:29.289Z,5224
2017-05-18T16:24:49.275Z,5240
2017-05-18T16:25:09.284Z,5276
2017-05-18T16:25:29.283Z,5312
2017-05-18T16:25:48.739Z,5340
2017-05-18T16:26:09.347Z,5360
2017-05-18T16:26:29.375Z,5376
2017-05-18T16:26:48.782Z,5384
2017-05-18T16:27:08.842Z,5380
2017-05-18T16:27:28.849Z,5368
2017-05-18T16:27:48.868Z,5344
2017-05-18T16:28:09.515Z,5336
2017-05-18T16:28:29.499Z,5344
2017-05-18T16:28:48.979Z,5400
2017-05-18T16:29:08.893Z,5524
2017-05-18T16:29:28.850Z,5692
2017-05-18T16:29:48.909Z,5900
2017-05-18T16:30:08.591Z,6152
2017-05-18T16:30:28.574Z,6420
2017-05-18T16:30:48.080Z,6672
2017-05-18T16:31:08.132Z,6896
2017-05-18T16:31:27.576Z,7056
2017-05-18T16:31:47.022Z,7148
2017-05-18T16:32:06.460Z,7176
2017-05-18T16:32:25.905Z,7148
2017-05-18T16:32:45.955Z,7072
2017-05-18T16:33:06.034Z,6956
2017-05-18T16:33:25.503Z,6864
2017-05-18T16:33:45.855Z,6832
2017-05-18T16:34:05.477Z,6876
2017-05-18T16:34:24.348Z,6984
2017-05-18T16:34:43.775Z,7176
2017-05-18T16:35:03.272Z,7452
2017-05-18T16:35:23.480Z,7772
2017-05-18T16:35:43.675Z,8016
2017-05-18T16:36:03.903Z,8164
2017-05-18T16:36:24.020Z,8316
2017-05-18T16:36:44.025Z,8532
2017-05-18T16:37:03.567Z,8840
2017-05-18T16:37:23.826Z,9248
2017-05-18T16:37:43.898Z,9612
2017-05-18T16:38:03.994Z,9908
2017-05-18T16:38:23.977Z,10152
2017-05-18T16:38:44.310Z,10324
2017-05-18T16:39:04.937Z,10412
2017-05-18T16:39:23.822Z,10432
2017-05-18T16:39:43.903Z,10368
2017-05-18T16:40:03.325Z,10268
2017-05-18T16:40:23.066Z,10128
2017-05-18T16:40:43.595Z,9932
2017-05-18T16:41:03.744Z,9668
2017-05-18T16:41:23.768Z,9384
2017-05-18T16:41:43.918Z,9116
2017-05-18T16:42:04.299Z,8884
2017-05-18T16:42:23.799Z,8704
2017-05-18T16:42:43.850Z,8564
2017-05-18T16:43:03.981Z,8480
2017-05-18T16:43:24.173Z,8408
2017-05-18T16:43:44.386Z,8324
2017-05-18T16:44:04.014Z,8248
2017-05-18T16:44:37.869Z,8236
2017-05-18T16:44:58.067Z,8300
2017-05-18T16:45:18.076Z,8380
2017-05-18T16:45:38.118Z,8448
2017-05-18T16:45:57.911Z,8548
2017-05-18T16:46:18.102Z,8696
2017-05-18T16:46:38.362Z,8872
2017-05-18T16:46:58.512Z,9096
2017-05-18T16:47:20.960Z,9392
2017-05-18T16:47:40.970Z,9716
2017-05-18T16:48:00.995Z,10088
2017-05-18T16:48:21.040Z,10460
2017-05-18T16:48:40.996Z,10764
2017-05-18T16:49:00.997Z,11012
2017-05-18T16:49:21.058Z,11208
2017-05-18T16:49:41.810Z,11352
2017-05-18T16:50:01.602Z,11428
2017-05-18T16:50:21.101Z,11480
2017-05-18T16:50:41.538Z,11512
2017-05-18T16:51:02.349Z,11504
2017-05-18T16:51:22.943Z,11436
2017-05-18T16:51:43.327Z,11312
2017-05-18T16:52:04.275Z,11124
2017-05-18T16:52:24.052Z,10888
2017-05-18T16:52:44.115Z,10632
2017-05-18T16:53:03.525Z,10336
2017-05-18T16:53:23.508Z,10040
2017-05-18T16:53:43.616Z,9760
2017-05-18T16:54:03.635Z,9496
2017-05-18T16:54:23.640Z,9208
2017-05-18T16:54:43.612Z,8920
2017-05-18T16:55:03.662Z,8644
2017-05-18T16:55:22.577Z,8388
2017-05-18T16:55:42.657Z,8148
2017-05-18T16:56:03.241Z,7948
2017-05-18T16:56:23.242Z,7788
2017-05-18T16:56:43.262Z,7648
2017-05-18T16:57:03.376Z,7556
2017-05-18T16:57:23.380Z,7536
2017-05-18T16:57:43.742Z,7544
2017-05-18T16:58:04.117Z,7600
2017-05-18T16:58:23.595Z,7684
2017-05-18T16:58:43.648Z,7820
2017-05-18T16:59:03.110Z,7968
2017-05-18T16:59:23.182Z,8132
2017-05-18T16:59:43.242Z,8304
2017-05-18T17:00:03.242Z,8460
2017-05-18T17:00:22.673Z,8588
2017-05-18T17:00:42.658Z,8692
2017-05-18T17:01:02.678Z,8748
2017-05-18T17:01:22.699Z,8796
2017-05-18T17:01:42.150Z,8804
2017-05-18T17:02:02.294Z,8764
2017-05-18T17:02:22.319Z,8704
2017-05-18T17:02:42.306Z,8624
2017-05-18T17:03:02.330Z,8556
2017-05-18T17:03:22.306Z,8512
2017-05-18T17:03:56.192Z,8484
2017-05-18T17:04:16.150Z,8512
2017-05-18T17:04:35.620Z,8544
2017-05-18T17:04:55.033Z,8564
2017-05-18T17:05:15.071Z,8596
2017-05-18T17:05:34.495Z,8648
2017-05-18T17:05:54.500Z,8700
2017-05-18T17:06:14.511Z,8788
2017-05-18T17:06:34.490Z,8892
2017-05-18T17:06:54.506Z,9068
2017-05-18T17:07:14.470Z,9256
2017-05-18T17:07:34.423Z,9452
2017-05-18T17:07:53.838Z,9608
2017-05-18T17:08:13.273Z,9708
2017-05-18T17:08:33.326Z,9784
2017-05-18T17:08:53.298Z,9812
2017-05-18T17:09:13.295Z,9832
2017-05-18T17:09:33.290Z,9808
2017-05-18T17:09:53.290Z,9804
2017-05-18T17:10:12.157Z,9800
2017-05-18T17:10:32.217Z,9780
2017-05-18T17:10:52.287Z,9768
2017-05-18T17:11:11.751Z,9760
2017-05-18T17:11:31.145Z,9764
2017-05-18T17:11:51.105Z,9776
2017-05-18T17:12:11.115Z,9780
2017-05-18T17:12:30.490Z,9788
2017-05-18T17:12:50.452Z,9752
2017-05-18T17:13:10.481Z,9744
2017-05-18T17:13:30.512Z,9724
2017-05-18T17:13:50.488Z,9700
2017-05-18T17:14:10.457Z,9680
2017-05-18T17:14:29.907Z,9672
2017-05-18T17:14:49.865Z,9676
2017-05-18T17:15:09.644Z,9680
2017-05-18T17:15:30.011Z,9700
2017-05-18T17:15:49.401Z,9720
2017-05-18T17:16:09.374Z,9748
2017-05-18T17:16:28.782Z,9780
2017-05-18T17:16:48.771Z,9820
2017-05-18T17:17:08.234Z,9856
2017-05-18T17:17:28.201Z,9896
2017-05-18T17:17:47.053Z,9932
2017-05-18T17:18:07.072Z,9968
2017-05-18T17:18:26.533Z,9992
2017-05-18T17:18:46.531Z,10008
2017-05-18T17:19:05.984Z,10012
2017-05-18T17:19:25.995Z,10012
2017-05-18T17:19:45.962Z,10008
2017-05-18T17:20:05.975Z,10000
2017-05-18T17:20:26.019Z,9984
2017-05-18T17:20:46.088Z,9988
2017-05-18T17:21:06.120Z,9980
2017-05-18T17:21:25.554Z,9964
2017-05-18T17:21:45.623Z,9964
2017-05-18T17:22:05.632Z,9948
2017-05-18T17:22:25.633Z,9936
2017-05-18T17:22:46.345Z,9924
2017-05-18T17:23:07.097Z,9916
2017-05-18T17:23:27.502Z,9916
2017-05-18T17:23:47.863Z,9912
2017-05-18T17:24:07.924Z,9916
2017-05-18T17:24:27.980Z,9920
2017-05-18T17:24:47.421Z,9924
2017-05-18T17:25:07.378Z,9916
2017-05-18T17:25:27.363Z,9920
2017-05-18T17:25:47.345Z,9900
2017-05-18T17:26:07.698Z,9872
2017-05-18T17:26:27.375Z,9840
2017-05-18T17:26:47.457Z,9808
2017-05-18T17:27:07.427Z,9772
2017-05-18T17:27:27.449Z,9732
2017-05-18T17:27:47.511Z,9680
2017-05-18T17:28:07.016Z,9632
2017-05-18T17:28:26.521Z,9560
2017-05-18T17:28:46.526Z,9488
2017-05-18T17:29:05.993Z,9408
2017-05-18T17:29:25.963Z,9328
2017-05-18T17:29:45.898Z,9244
2017-05-18T17:30:05.319Z,9144
2017-05-18T17:30:25.280Z,9040
2017-05-18T17:30:45.357Z,8940
2017-05-18T17:31:05.329Z,8832
2017-05-18T17:31:25.319Z,8728
2017-05-18T17:31:44.752Z,8624
2017-05-18T17:32:04.724Z,8520
2017-05-18T17:32:24.159Z,8424
2017-05-18T17:32:44.160Z,8344
2017-05-18T17:33:03.036Z,8276
2017-05-18T17:33:22.421Z,8212
2017-05-18T17:33:42.394Z,8152
2017-05-18T17:34:02.412Z,8100
2017-05-18T17:34:21.313Z,8076
2017-05-18T17:34:42.139Z,8040
2017-05-18T17:35:02.108Z,8016
2017-05-18T17:35:21.999Z,7984
2017-05-18T17:35:42.208Z,7972
2017-05-18T17:36:01.650Z,7960
2017-05-18T17:36:21.766Z,7940
2017-05-18T17:36:44.280Z,7920
2017-05-18T17:37:04.479Z,7904
2017-05-18T17:37:24.520Z,7884
2017-05-18T17:37:44.512Z,7864
2017-05-18T17:38:04.821Z,7864
2017-05-18T17:38:25.154Z,7864
2017-05-18T17:38:45.581Z,7872
2017-05-18T17:39:05.164Z,7888
2017-05-18T17:39:25.563Z,7920
2017-05-18T17:39:45.800Z,7948
2017-05-18T17:40:05.802Z,7988
2017-05-18T17:40:25.769Z,8032
2017-05-18T17:40:45.790Z,8084
2017-05-18T17:41:05.909Z,8136
2017-05-18T17:41:25.872Z,8192
2017-05-18T17:41:45.921Z,8240
2017-05-18T17:42:05.869Z,8296
2017-05-18T17:42:25.836Z,8348
2017-05-18T17:42:46.019Z,8396
2017-05-18T17:43:07.054Z,8444
2017-05-18T17:43:27.868Z,8488
2017-05-18T17:43:48.583Z,8540
2017-05-18T17:44:08.741Z,8576
2017-05-18T17:44:29.011Z,8596
2017-05-18T17:44:49.109Z,8596
2017-05-18T17:45:10.641Z,8588
2017-05-18T17:45:31.211Z,8552
2017-05-18T17:45:52.068Z,8508
2017-05-18T17:46:12.219Z,8456
2017-05-18T17:46:32.398Z,8388
2017-05-18T17:46:53.555Z,8300
2017-05-18T17:47:14.554Z,8184
2017-05-18T17:47:33.865Z,8108
2017-05-18T17:47:53.314Z,8012
2017-05-18T17:48:13.291Z,7908
2017-05-18T17:48:33.303Z,7816
2017-05-18T17:48:53.350Z,7736
2017-05-18T17:49:12.774Z,7660
2017-05-18T17:49:32.752Z,7612
2017-05-18T17:49:52.958Z,7576
2017-05-18T17:50:12.319Z,7564
2017-05-18T17:50:32.393Z,7568
2017-05-18T17:50:52.469Z,7592
2017-05-18T17:51:12.461Z,7636
2017-05-18T17:51:32.416Z,7700
2017-05-18T17:51:51.808Z,7780
2017-05-18T17:52:11.832Z,7876
2017-05-18T17:52:30.672Z,7972
2017-05-18T17:52:50.675Z,8084
2017-05-18T17:53:10.601Z,8208
2017-05-18T17:53:30.607Z,8344
2017-05-18T17:53:50.594Z,8484
2017-05-18T17:54:09.000Z,8600
2017-05-18T17:54:28.994Z,8720
2017-05-18T17:54:48.691Z,8832
2017-05-18T17:55:08.761Z,8928
2017-05-18T17:55:28.692Z,9032
2017-05-18T17:55:48.122Z,9080
2017-05-18T17:56:08.165Z,9144
2017-05-18T17:56:27.675Z,9184
2017-05-18T17:56:47.654Z,9212
2017-05-18T17:57:07.096Z,9228
2017-05-18T17:57:27.092Z,9220
2017-05-18T17:57:46.685Z,9204
2017-05-18T17:58:05.466Z,9176
2017-05-18T17:58:24.216Z,9144
2017-05-18T17:58:43.518Z,9104
2017-05-18T17:59:02.850Z,9072
2017-05-18T17:59:21.644Z,9060
2017-05-18T17:59:41.223Z,9056
2017-05-18T18:00:14.572Z,9048
2017-05-18T18:00:34.106Z,9024
2017-05-18T18:00:52.910Z,8948
2017-05-18T18:01:11.754Z,8852
2017-05-18T18:01:30.514Z,8736
2017-05-18T18:01:49.916Z,8640
2017-05-18T18:02:09.731Z,8560
2017-05-18T18:02:28.986Z,8480
2017-05-18T18:02:48.577Z,8416
2017-05-18T18:03:07.622Z,8352
2017-05-18T18:03:26.963Z,8280
2017-05-18T18:03:46.492Z,8200
2017-05-18T18:04:05.488Z,8136
2017-05-18T18:04:24.925Z,8064
2017-05-18T18:04:44.289Z,7988
2017-05-18T18:05:03.700Z,7896
2017-05-18T18:05:22.629Z,7780
2017-05-18T18:05:42.054Z,7680
2017-05-18T18:06:02.835Z,7616
2017-05-18T18:06:22.633Z,7532
2017-05-18T18:06:42.299Z,7488
2017-05-18T18:07:01.761Z,7400
2017-05-18T18:07:21.516Z,7336
2017-05-18T18:07:40.902Z,7288
2017-05-18T18:08:00.311Z,7248
2017-05-18T18:08:19.715Z,7252
2017-05-18T18:08:37.962Z,7260
2017-05-18T18:08:57.236Z,7232
2017-05-18T18:09:16.041Z,7188
2017-05-18T18:09:34.930Z,7152
2017-05-18T18:09:54.561Z,7060
2017-05-18T18:10:13.380Z,6908
2017-05-18T18:10:32.710Z,6736
2017-05-18T18:10:52.017Z,6604
2017-05-18T18:11:11.253Z,6620
2017-05-18T18:11:30.543Z,6780
2017-05-18T18:11:49.828Z,7024
2017-05-18T18:12:09.107Z,7280
2017-05-18T18:12:28.400Z,7444
2017-05-18T18:12:47.719Z,7556
2017-05-18T18:13:07.082Z,7528
2017-05-18T18:13:26.358Z,7496
2017-05-18T18:13:45.657Z,7472
2017-05-18T18:14:04.391Z,7568
2017-05-18T18:14:23.183Z,7684
2017-05-18T18:14:42.494Z,7744
2017-05-18T18:15:01.768Z,7720
2017-05-18T18:15:20.628Z,7700
2017-05-18T18:15:40.032Z,7724
2017-05-18T18:15:58.918Z,7748
2017-05-18T18:16:18.270Z,7760
2017-05-18T18:16:37.595Z,7724
2017-05-18T18:16:57.091Z,7684
2017-05-18T18:17:15.468Z,7648
2017-05-18T18:17:34.728Z,7656
2017-05-18T18:17:54.114Z,7692
2017-05-18T18:18:13.513Z,7760
2017-05-18T18:18:32.301Z,7820
2017-05-18T18:18:51.715Z,7868
2017-05-18T18:19:10.552Z,7904
2017-05-18T18:19:29.881Z,7940
2017-05-18T18:19:49.277Z,7988
2017-05-18T18:20:08.669Z,8032
2017-05-18T18:20:28.255Z,8068
2017-05-18T18:20:47.251Z,8092
2017-05-18T18:21:06.675Z,8100
2017-05-18T18:21:26.151Z,8092
2017-05-18T18:21:46.095Z,8064
2017-05-18T18:22:04.934Z,8020
2017-05-18T18:22:23.788Z,7988
2017-05-18T18:22:43.108Z,7968
2017-05-18T18:23:02.511Z,7968
2017-05-18T18:23:21.490Z,8036
2017-05-18T18:23:40.319Z,8104
2017-05-18T18:23:59.649Z,8156
2017-05-18T18:24:18.963Z,8188
2017-05-18T18:24:38.412Z,8196
2017-05-18T18:24:57.420Z,8164
2017-05-18T18:25:15.730Z,8116
2017-05-18T18:25:35.192Z,8056
2017-05-18T18:25:54.219Z,7988
2017-05-18T18:26:15.044Z,7896
2017-05-18T18:26:34.394Z,7832
2017-05-18T18:26:53.318Z,7764
2017-05-18T18:27:12.665Z,7724
2017-05-18T18:27:32.085Z,7732
2017-05-18T18:27:52.899Z,7736
2017-05-18T18:28:12.167Z,7728
2017-05-18T18:28:44.916Z,7788
2017-05-18T18:29:04.355Z,7828
2017-05-18T18:29:23.223Z,7864
2017-05-18T18:29:44.124Z,7928
2017-05-18T18:30:03.508Z,7968
2017-05-18T18:30:22.473Z,7984
2017-05-18T18:30:41.981Z,7996
2017-05-18T18:31:01.355Z,8048
2017-05-18T18:31:20.382Z,8060
2017-05-18T18:32:13.380Z,8296
2017-05-18T18:32:33.004Z,8404
2017-05-18T18:32:52.069Z,8508
2017-05-18T18:33:11.713Z,8580
2017-05-18T18:33:31.222Z,8600
2017-05-18T18:33:50.064Z,8636
2017-05-18T18:34:09.384Z,8704
2017-05-18T18:34:28.732Z,8764
2017-05-18T18:34:48.447Z,8784
2017-05-18T18:35:08.493Z,8864
2017-05-18T18:35:28.482Z,9012
2017-05-18T18:35:48.124Z,9060
2017-05-18T18:36:07.626Z,9068
2017-05-18T18:36:26.420Z,9072
2017-05-18T18:36:45.331Z,9096
2017-05-18T18:37:05.142Z,9124
2017-05-18T18:37:24.696Z,9152
2017-05-18T18:37:43.999Z,9176
2017-05-18T18:38:04.167Z,9228
2017-05-18T18:38:23.569Z,9292
2017-05-18T18:38:42.413Z,9348
2017-05-18T18:39:01.219Z,9416
2017-05-18T18:39:20.136Z,9480
2017-05-18T18:39:39.033Z,9556
2017-05-18T18:39:58.343Z,9656
2017-05-18T18:40:17.765Z,9784
2017-05-18T18:40:37.140Z,9916
2017-05-18T18:40:56.500Z,10032
2017-05-18T18:41:15.949Z,10108
2017-05-18T18:41:35.384Z,10212
2017-05-18T18:41:54.255Z,10272
2017-05-18T18:42:12.504Z,10300
2017-05-18T18:42:31.364Z,10352
2017-05-18T18:42:50.784Z,10360
2017-05-18T18:43:10.146Z,10320
2017-05-18T18:43:29.069Z,10272
2017-05-18T18:43:47.928Z,10180
2017-05-18T18:44:07.283Z,10092
2017-05-18T18:44:26.075Z,10020
2017-05-18T18:44:44.969Z,9972
2017-05-18T18:45:04.316Z,9912
2017-05-18T18:45:23.654Z,9884
2017-05-18T18:45:43.129Z,9836
2017-05-18T18:46:02.526Z,9764
2017-05-18T18:46:21.911Z,9676
2017-05-18T18:46:55.201Z,9612
2017-05-18T18:47:14.190Z,9692
2017-05-18T18:47:33.116Z,9736
2017-05-18T18:47:52.003Z,9776
2017-05-18T18:48:10.765Z,9772
2017-05-18T18:48:28.506Z,9752
2017-05-18T18:48:47.259Z,9732
2017-05-18T18:49:06.541Z,9704
2017-05-18T18:49:25.344Z,9660
2017-05-18T18:49:44.769Z,9672
2017-05-18T18:50:04.289Z,9644
2017-05-18T18:50:23.591Z,9636
2017-05-18T18:50:42.870Z,9632
2017-05-18T18:51:02.168Z,9612
2017-05-18T18:51:20.940Z,9568
2017-05-18T18:51:40.171Z,9500
2017-05-18T18:51:59.450Z,9420
2017-05-18T18:52:18.699Z,9404
2017-05-18T18:52:37.987Z,9388
2017-05-18T18:52:57.317Z,9376
2017-05-18T18:53:16.691Z,9376
2017-05-18T18:53:35.968Z,9368
2017-05-18T18:53:55.320Z,9316
2017-05-18T18:54:14.109Z,9272
2017-05-18T18:54:32.932Z,9256
2017-05-18T18:54:52.214Z,9164
2017-05-18T18:55:10.950Z,9036
2017-05-18T18:55:29.726Z,8920
2017-05-18T18:55:49.056Z,8780
2017-05-18T18:56:07.842Z,8608
2017-05-18T18:56:26.641Z,8472
2017-05-18T18:56:45.931Z,8172
2017-05-18T18:57:05.183Z,7716
2017-05-18T18:57:24.006Z,7212
2017-05-18T18:57:43.296Z,6932
2017-05-18T18:58:02.054Z,6896
2017-05-18T18:58:21.357Z,6912
2017-05-18T18:58:40.678Z,6924
2017-05-18T18:58:59.958Z,6888
2017-05-18T18:59:19.231Z,6932
2017-05-18T18:59:38.525Z,6896
2017-05-18T18:59:57.379Z,6824
2017-05-18T19:00:16.172Z,6592
2017-05-18T19:00:35.430Z,6292
2017-05-18T19:00:54.763Z,5852
2017-05-18T19:01:13.572Z,5512
2017-05-18T19:01:32.374Z,5364
2017-05-18T19:01:51.162Z,5292
2017-05-18T19:02:09.935Z,5176
2017-05-18T19:02:29.207Z,5032
2017-05-18T19:02:47.978Z,4844
2017-05-18T19:03:07.274Z,4724
2017-05-18T19:03:26.619Z,4656
2017-05-18T19:03:45.990Z,4660
2017-05-18T19:04:05.230Z,4808
2017-05-18T19:04:24.519Z,4988
2017-05-18T19:04:42.775Z,5172
2017-05-18T19:05:02.095Z,5356
2017-05-18T19:05:21.370Z,5412
2017-05-18T19:05:40.670Z,5296
2017-05-18T19:06:00.013Z,5284
2017-05-18T19:06:19.374Z,5376
2017-05-18T19:06:38.676Z,5448
2017-05-18T19:06:58.005Z,5480
2017-05-18T19:07:17.321Z,5520
2017-05-18T19:07:35.847Z,5436
2017-05-18T19:07:54.813Z,5340
2017-05-18T19:08:13.914Z,5312
2017-05-18T19:08:32.691Z,5276
2017-05-18T19:08:51.455Z,5140
2017-05-18T19:09:10.790Z,4896
2017-05-18T19:09:30.155Z,4652
2017-05-18T19:09:49.488Z,4468
2017-05-18T19:10:08.965Z,4272
2017-05-18T19:10:28.255Z,4152
2017-05-18T19:10:47.523Z,4140
2017-05-18T19:11:06.847Z,4160
2017-05-18T19:11:26.154Z,4116
2017-05-18T19:11:46.028Z,4000
2017-05-18T19:12:05.424Z,3884
2017-05-18T19:12:24.177Z,3856
2017-05-18T19:12:43.551Z,3856
2017-05-18T19:13:02.799Z,3796
2017-05-18T19:13:21.601Z,3692
2017-05-18T19:13:40.418Z,3652
2017-05-18T19:13:59.357Z,3708
2017-05-18T19:14:18.232Z,3756
2017-05-18T19:14:37.649Z,3720
2017-05-18T19:14:56.998Z,3700
2017-05-18T19:15:15.854Z,3664
2017-05-18T19:15:34.722Z,3568
2017-05-18T19:15:54.189Z,3444
2017-05-18T19:16:13.167Z,3372
2017-05-18T19:16:32.000Z,3328
2017-05-18T19:16:51.338Z,3296
2017-05-18T19:17:10.262Z,3260
2017-05-18T19:17:28.615Z,3240
2017-05-18T19:17:47.874Z,3344
2017-05-18T19:18:07.171Z,3496
2017-05-18T19:18:26.447Z,3452
2017-05-18T19:18:45.222Z,3404
2017-05-18T19:19:03.996Z,3452
2017-05-18T19:19:23.264Z,3508
2017-05-18T19:19:42.511Z,3508
2017-05-18T19:20:01.962Z,3468
2017-05-18T19:20:21.341Z,3388
2017-05-18T19:20:40.115Z,3308
2017-05-18T19:20:59.433Z,3316
2017-05-18T19:21:18.720Z,3396
2017-05-18T19:21:37.959Z,3508
2017-05-18T19:21:57.247Z,3616
2017-05-18T19:22:15.504Z,3716
2017-05-18T19:22:34.765Z,3804
2017-05-18T19:22:54.028Z,3892
2017-05-18T19:23:12.792Z,3944
2017-05-18T19:23:32.078Z,3952
2017-05-18T19:23:51.372Z,3904
2017-05-18T19:24:10.656Z,3892
2017-05-18T19:24:28.424Z,3908
2017-05-18T19:24:47.713Z,4000
2017-05-18T19:25:07.316Z,4124
2017-05-18T19:25:26.988Z,4196
2017-05-18T19:25:46.265Z,4204
2017-05-18T19:26:05.611Z,4212
2017-05-18T19:26:24.865Z,4272
2017-05-18T19:26:44.246Z,4336
2017-05-18T19:27:03.540Z,4392
2017-05-18T19:27:22.849Z,4404
2017-05-18T19:27:42.218Z,4352
2017-05-18T19:28:01.573Z,4260
2017-05-18T19:28:21.099Z,4168
2017-05-18T19:28:40.465Z,4068
2017-05-18T19:28:58.784Z,3972
2017-05-18T19:29:18.275Z,3852
2017-05-18T19:29:37.682Z,3728
2017-05-18T19:29:57.299Z,3588
2017-05-18T19:30:16.707Z,3436
2017-05-18T19:30:36.021Z,3296
2017-05-18T19:30:54.774Z,3176
2017-05-18T19:31:14.077Z,3108
2017-05-18T19:31:33.513Z,3068
2017-05-18T19:31:52.802Z,3008
2017-05-18T19:32:12.098Z,2908
2017-05-18T19:32:31.514Z,2768
2017-05-18T19:32:50.329Z,2632
2017-05-18T19:33:09.599Z,2520
2017-05-18T19:33:28.465Z,2432
2017-05-18T19:33:47.343Z,2372
2017-05-18T19:34:06.733Z,2348
2017-05-18T19:34:26.064Z,2352
2017-05-18T19:34:45.534Z,2328
2017-05-18T19:35:04.898Z,2284
2017-05-18T19:35:24.204Z,2220
2017-05-18T19:35:43.602Z,2156
2017-05-18T19:36:02.889Z,2108
2017-05-18T19:36:22.234Z,2096
2017-05-18T19:36:41.605Z,2060
2017-05-18T19:37:00.886Z,1964
2017-05-18T19:37:20.172Z,1832
2017-05-18T19:37:38.503Z,1720
2017-05-18T19:37:57.835Z,1648
2017-05-18T19:38:16.098Z,1600
2017-05-18T19:38:35.457Z,1564
2017-05-18T19:38:54.719Z,1528
2017-05-18T19:39:12.972Z,1516
2017-05-18T19:39:32.283Z,1528
2017-05-18T19:39:51.068Z,1532
2017-05-18T19:40:09.832Z,1496
2017-05-18T19:40:29.074Z,1424
2017-05-18T19:40:48.332Z,1356
2017-05-18T19:41:07.606Z,1320
2017-05-18T19:41:26.433Z,1304
2017-05-18T19:41:45.792Z,1304
2017-05-18T19:42:05.121Z,1288
2017-05-18T19:42:23.393Z,1252
2017-05-18T19:42:42.671Z,1204
2017-05-18T19:43:01.986Z,1176
2017-05-18T19:43:21.271Z,1168
2017-05-18T19:43:40.063Z,1164
2017-05-18T19:43:59.337Z,1160
2017-05-18T19:44:18.640Z,1156
2017-05-18T19:44:37.929Z,1136
2017-05-18T19:44:57.297Z,1108
2017-05-18T19:45:16.619Z,1080
2017-05-18T19:45:35.375Z,1060
2017-05-18T19:45:53.645Z,1036
2017-05-18T19:46:11.928Z,1004
2017-05-18T19:46:31.199Z,968
2017-05-18T19:46:50.482Z,928
2017-05-18T19:47:09.336Z,896
2017-05-18T19:47:28.607Z,868
2017-05-18T19:47:47.929Z,852
2017-05-18T19:48:07.178Z,848
2017-05-18T19:48:25.979Z,856
2017-05-18T19:48:45.240Z,868
2017-05-18T19:49:04.008Z,872
2017-05-18T19:49:22.757Z,868
2017-05-18T19:49:41.499Z,856
2017-05-18T19:50:00.897Z,840
2017-05-18T19:50:20.221Z,832
2017-05-18T19:50:39.948Z,832
2017-05-18T19:50:59.198Z,836
2017-05-18T19:51:18.467Z,840
2017-05-18T19:51:37.740Z,836
2017-05-18T19:51:57.051Z,816
2017-05-18T19:52:16.279Z,788
2017-05-18T19:52:35.625Z,768
2017-05-18T19:52:54.367Z,752
2017-05-18T19:53:13.630Z,752
2017-05-18T19:53:32.909Z,752
2017-05-18T19:53:52.230Z,752
2017-05-18T19:54:11.540Z,748
2017-05-18T19:54:30.418Z,740
2017-05-18T19:54:49.861Z,736
2017-05-18T19:55:09.159Z,732
2017-05-18T19:55:28.424Z,720
2017-05-18T19:55:47.844Z,704
2017-05-18T19:56:07.188Z,680
2017-05-18T19:56:26.452Z,648
2017-05-18T19:56:45.789Z,612
2017-05-18T19:57:05.093Z,576
2017-05-18T19:57:23.869Z,552
2017-05-18T19:57:43.822Z,536